Time;durP1;ratioP1;P1;durP2;ratioP2;P2;SDS_P1;SDS_P2;PMS_P1;PMS_P2;Temp;Humidity;BMP_temperature;BMP_pressure;BME280_temperature;BME280_humidity;BME280_pressure;Samples;Min_cycle;Max_cycle;Signal;HPM_P1;HPM_P2
2022/08/01 00:01:22;;;;;;;29.45;19.08;;;19.50;92.70;;;;;;5073042;28;20460;-46
2022/08/01 00:03:48;;;;;;;29.30;19.30;;;19.40;92.70;;;;;;5071424;28;20021;-46
2022/08/01 00:06:14;;;;;;;35.90;20.67;;;19.50;92.70;;;;;;5072078;28;20483;-46
2022/08/01 00:08:39;;;;;;;27.13;20.17;;;19.50;92.70;;;;;;5072579;28;20024;-46
2022/08/01 00:11:05;;;;;;;30.80;20.20;;;19.50;92.70;;;;;;5054802;28;20030;-46
2022/08/01 00:13:31;;;;;;;26.35;19.20;;;19.50;92.50;;;;;;5073104;28;20103;-46
2022/08/01 00:15:56;;;;;;;30.05;19.33;;;19.50;92.40;;;;;;5072574;28;20024;-45
2022/08/01 00:18:22;;;;;;;27.05;19.63;;;19.50;92.40;;;;;;5073391;28;20111;-47
2022/08/01 00:20:48;;;;;;;23.08;19.23;;;19.50;92.50;;;;;;5072583;28;20029;-45
2022/08/01 00:23:14;;;;;;;28.13;19.80;;;19.50;92.40;;;;;;5072661;28;20025;-46
2022/08/01 00:25:39;;;;;;;31.55;21.20;;;19.50;92.30;;;;;;5071280;28;20047;-46
2022/08/01 00:28:08;;;;;;;32.90;19.52;;;19.50;92.20;;;;;;5074619;28;20464;-46
2022/08/01 00:30:34;;;;;;;33.35;21.77;;;19.50;92.20;;;;;;5076531;28;20396;-46
2022/08/01 00:33:00;;;;;;;30.00;18.75;;;19.50;92.20;;;;;;5076229;28;20021;-45
2022/08/01 00:35:26;;;;;;;30.83;20.95;;;19.50;92.30;;;;;;5076906;28;20025;-45
2022/08/01 00:37:52;;;;;;;29.42;19.58;;;19.50;92.20;;;;;;5076231;28;20020;-46
2022/08/01 00:40:18;;;;;;;30.52;20.15;;;19.50;92.30;;;;;;5074942;28;20044;-45
2022/08/01 00:42:44;;;;;;;26.08;18.85;;;19.60;92.30;;;;;;5076409;28;20028;-46
2022/08/01 00:45:11;;;;;;;30.40;21.58;;;19.50;92.30;;;;;;5076161;28;20043;-46
2022/08/01 00:47:37;;;;;;;31.08;20.20;;;19.50;92.40;;;;;;5076376;28;20082;-45
2022/08/01 00:50:06;;;;;;;29.88;20.65;;;19.50;92.40;;;;;;5075977;28;20430;-45
2022/08/01 00:52:34;;;;;;;35.05;20.23;;;19.50;92.60;;;;;;5075944;28;20431;-45
2022/08/01 00:55:00;;;;;;;28.63;18.85;;;19.50;92.50;;;;;;5076106;28;20021;-45
2022/08/01 00:57:26;;;;;;;25.85;18.38;;;19.50;92.50;;;;;;5075845;28;20020;-46
2022/08/01 00:59:52;;;;;;;30.95;19.13;;;19.50;92.50;;;;;;5076191;28;20354;-45
2022/08/01 01:02:18;;;;;;;26.40;18.67;;;19.50;92.50;;;;;;5075820;28;20032;-45
2022/08/01 01:04:44;;;;;;;30.88;20.08;;;19.50;92.50;;;;;;5075449;28;20023;-45
2022/08/01 01:07:32;;;;;;;25.38;19.20;;;19.40;92.30;;;;;;5076346;28;20469;-45
2022/08/01 01:10:20;;;;;;;29.95;19.90;;;19.40;92.60;;;;;;5075459;28;20028;-45
2022/08/01 01:13:04;;;;;;;30.70;20.67;;;19.50;92.60;;;;;;5075689;28;20428;-45
2022/08/01 01:15:41;;;;;;;26.88;19.90;;;19.50;92.50;;;;;;5075684;28;20070;-45
2022/08/01 01:18:16;;;;;;;27.63;19.27;;;19.50;92.70;;;;;;5075680;28;20149;-45
2022/08/01 01:21:12;;;;;;;27.92;19.90;;;19.40;92.50;;;;;;5075171;28;20078;-45
2022/08/01 01:24:02;;;;;;;29.98;20.15;;;19.40;92.60;;;;;;5075390;28;20039;-46
2022/08/01 01:26:49;;;;;;;37.25;22.88;;;19.50;92.50;;;;;;5075175;28;20021;-45
2022/08/01 01:29:23;;;;;;;30.77;20.90;;;19.60;92.40;;;;;;5075458;28;20120;-45
2022/08/01 01:32:14;;;;;;;29.13;20.00;;;19.60;92.30;;;;;;5075446;28;20047;-45
2022/08/01 01:34:44;;;;;;;33.72;20.42;;;19.60;92.10;;;;;;5075132;28;20029;-45
2022/08/01 01:37:15;;;;;;;28.55;20.88;;;19.40;92.30;;;;;;5075460;28;20056;-46
2022/08/01 01:39:42;;;;;;;25.75;18.05;;;19.50;92.40;;;;;;5074949;28;20087;-45
2022/08/01 01:42:08;;;;;;;27.85;19.42;;;19.50;92.30;;;;;;5074832;28;20447;-45
2022/08/01 01:44:36;;;;;;;31.55;19.75;;;19.50;92.40;;;;;;5074846;28;20017;-45
2022/08/01 01:47:02;;;;;;;25.52;18.10;;;19.50;92.40;;;;;;5073611;28;20043;-45
2022/08/01 01:49:29;;;;;;;29.10;18.65;;;19.50;92.20;;;;;;5075041;28;20024;-46
2022/08/01 01:51:58;;;;;;;26.52;18.80;;;19.50;92.10;;;;;;5074842;28;20387;-46
2022/08/01 01:54:34;;;;;;;30.55;17.27;;;19.50;92.00;;;;;;5075060;28;20116;-46
2022/08/01 01:57:03;;;;;;;29.25;17.80;;;19.50;92.10;;;;;;5074666;28;20107;-46
2022/08/01 01:59:32;;;;;;;26.17;17.10;;;19.50;92.20;;;;;;5074826;28;20055;-45
2022/08/01 02:02:02;;;;;;;24.60;16.60;;;19.60;92.00;;;;;;5074769;28;20091;-45
2022/08/01 02:04:29;;;;;;;23.40;16.20;;;19.50;91.60;;;;;;5057381;28;20071;-46
2022/08/01 02:06:57;;;;;;;25.92;17.55;;;19.50;91.60;;;;;;5074604;28;20029;-46
2022/08/01 02:09:24;;;;;;;24.83;15.45;;;19.60;91.40;;;;;;5074692;28;20020;-46
2022/08/01 02:11:51;;;;;;;27.73;17.20;;;19.50;91.30;;;;;;5074955;28;20087;-45
2022/08/01 02:14:18;;;;;;;27.48;18.20;;;19.60;91.50;;;;;;5074602;28;20023;-46
2022/08/01 02:16:48;;;;;;;28.77;16.13;;;19.60;91.40;;;;;;5073869;28;20028;-45
2022/08/01 02:19:18;;;;;;;23.17;16.08;;;19.60;91.30;;;;;;5075028;28;20486;-46
2022/08/01 02:21:59;;;;;;;23.83;16.23;;;19.60;91.10;;;;;;5074546;28;20480;-46
2022/08/01 02:25:05;;;;;;;20.33;15.27;;;19.50;91.20;;;;;;5074703;28;20389;-45
2022/08/01 02:27:40;;;;;;;24.38;15.40;;;19.50;91.20;;;;;;5069835;28;20044;-46
2022/08/01 02:30:08;;;;;;;29.25;16.27;;;19.50;91.30;;;;;;5074677;28;20021;-45
2022/08/01 02:32:50;;;;;;;24.20;14.75;;;19.50;91.10;;;;;;5074401;28;20170;-45
2022/08/01 02:35:28;;;;;;;28.40;14.45;;;19.50;90.90;;;;;;5074360;28;20043;-44
2022/08/01 02:37:57;;;;;;;22.75;13.48;;;19.50;90.80;;;;;;5074451;28;20052;-46
2022/08/01 02:40:23;;;;;;;28.00;15.15;;;19.40;90.90;;;;;;5073818;28;20137;-47
2022/08/01 02:42:52;;;;;;;27.30;15.52;;;19.40;91.00;;;;;;5074006;28;20027;-45
2022/08/01 02:45:20;;;;;;;25.08;16.65;;;19.40;91.10;;;;;;5074319;28;20094;-46
2022/08/01 02:47:49;;;;;;;22.73;13.73;;;19.40;91.20;;;;;;5073763;28;20021;-45
2022/08/01 02:50:17;;;;;;;21.38;13.52;;;19.40;91.00;;;;;;5073172;28;20032;-45
2022/08/01 02:52:48;;;;;;;24.92;14.00;;;19.30;91.10;;;;;;5073476;28;20091;-46
2022/08/01 02:55:15;;;;;;;25.15;13.57;;;19.30;91.30;;;;;;5073739;28;20024;-47
2022/08/01 02:57:43;;;;;;;22.45;13.80;;;19.40;91.30;;;;;;5073590;28;20021;-46
2022/08/01 03:00:09;;;;;;;25.67;13.70;;;19.30;90.90;;;;;;5072556;28;20506;-47
2022/08/01 03:02:36;;;;;;;24.85;15.43;;;19.30;90.90;;;;;;5073393;28;20028;-46
2022/08/01 03:05:03;;;;;;;25.67;15.15;;;19.30;90.90;;;;;;5073722;28;20093;-46
2022/08/01 03:07:29;;;;;;;22.40;14.25;;;19.30;90.90;;;;;;5073533;28;20078;-46
2022/08/01 03:09:57;;;;;;;25.35;15.07;;;19.30;90.90;;;;;;5073658;28;20052;-46
2022/08/01 03:12:27;;;;;;;22.30;14.75;;;19.30;90.80;;;;;;5072916;28;20128;-46
2022/08/01 03:14:55;;;;;;;26.08;16.30;;;19.20;90.80;;;;;;5073241;28;20070;-47
2022/08/01 03:17:24;;;;;;;30.75;14.95;;;19.10;91.00;;;;;;5074217;28;20029;-47
2022/08/01 03:19:52;;;;;;;30.90;15.20;;;19.20;91.40;;;;;;5073983;28;20137;-46
2022/08/01 03:22:21;;;;;;;26.83;16.10;;;19.10;91.30;;;;;;5074224;28;20166;-47
2022/08/01 03:24:51;;;;;;;26.05;15.82;;;19.00;91.30;;;;;;5074401;28;20100;-46
2022/08/01 03:27:19;;;;;;;21.10;14.60;;;19.10;91.40;;;;;;5074903;28;20055;-46
2022/08/01 03:29:46;;;;;;;26.15;15.43;;;19.00;91.40;;;;;;5074821;28;20353;-46
2022/08/01 03:32:13;;;;;;;24.52;15.60;;;19.00;91.50;;;;;;5073281;28;20024;-47
2022/08/01 03:34:38;;;;;;;25.60;15.77;;;19.00;91.50;;;;;;5073595;28;20107;-48
2022/08/01 03:37:10;;;;;;;23.70;15.45;;;19.00;91.50;;;;;;5073338;28;20123;-46
2022/08/01 19:41:45;;;;;;;3.83;1.98;;;20.40;69.20;;;;;;5111704;27;20130;-39
2022/08/01 19:44:13;;;;;;;5.47;2.42;;;20.30;69.50;;;;;;5109482;28;20373;-39
2022/08/01 19:46:40;;;;;;;8.48;2.95;;;20.30;69.50;;;;;;5109654;28;20020;-38
2022/08/01 19:49:05;;;;;;;6.25;2.53;;;20.30;69.50;;;;;;5109923;28;20019;-39
2022/08/01 19:51:33;;;;;;;6.22;2.55;;;20.30;69.50;;;;;;5111219;28;20031;-40
2022/08/01 19:54:04;;;;;;;7.72;3.25;;;20.30;69.70;;;;;;5109655;28;20034;-39
2022/08/01 19:56:40;;;;;;;8.15;3.13;;;20.30;69.50;;;;;;5109767;28;20035;-38
2022/08/01 19:59:07;;;;;;;7.38;4.00;;;20.30;69.80;;;;;;5109568;28;20096;-39
2022/08/01 20:01:35;;;;;;;8.48;3.63;;;20.30;69.70;;;;;;5092187;28;20155;-38
2022/08/01 20:04:04;;;;;;;9.57;3.65;;;20.20;69.70;;;;;;5111830;28;20023;-39
2022/08/01 20:06:31;;;;;;;5.93;1.92;;;20.20;69.80;;;;;;5110531;28;20019;-43
2022/08/01 20:08:58;;;;;;;4.18;2.50;;;20.20;70.10;;;;;;5111005;28;20107;-39
2022/08/01 20:11:25;;;;;;;8.13;2.70;;;20.10;70.20;;;;;;5109248;28;20024;-39
2022/08/01 20:13:51;;;;;;;5.00;3.22;;;20.00;70.50;;;;;;5110466;28;20028;-40
2022/08/01 20:16:17;;;;;;;6.38;2.88;;;20.00;70.70;;;;;;5111013;28;20024;-39
2022/08/01 20:18:43;;;;;;;7.25;2.78;;;19.90;71.20;;;;;;5109027;28;20028;-39
2022/08/01 20:21:13;;;;;;;9.23;3.90;;;19.90;71.40;;;;;;5110591;28;20028;-39
2022/08/01 20:23:40;;;;;;;9.10;4.22;;;19.80;71.60;;;;;;5110691;28;20012;-39
2022/08/01 20:26:07;;;;;;;4.97;2.45;;;19.80;71.80;;;;;;5110249;28;20016;-39
2022/08/01 20:28:38;;;;;;;6.90;2.63;;;19.80;71.90;;;;;;5111031;28;20066;-38
2022/08/01 20:31:07;;;;;;;7.72;3.08;;;19.70;72.20;;;;;;5111134;28;20412;-39
2022/08/01 20:33:37;;;;;;;13.20;3.72;;;19.70;72.30;;;;;;5111047;28;20028;-38
2022/08/01 20:36:04;;;;;;;;;;;19.70;72.40;;;;;;5110917;28;20023;-39
2022/08/01 20:38:31;;;;;;;8.60;3.53;;;19.70;72.90;;;;;;5108724;28;19935;-38
2022/08/01 20:41:01;;;;;;;5.95;2.63;;;19.70;73.60;;;;;;5108314;28;20092;-42
2022/08/01 20:43:27;;;;;;;5.72;3.13;;;19.60;73.80;;;;;;5092028;28;20110;-39
2022/08/01 20:45:55;;;;;;;8.68;2.72;;;19.50;73.20;;;;;;5109839;28;20153;-38
2022/08/01 20:48:21;;;;;;;4.03;2.47;;;19.40;73.30;;;;;;5109690;28;20407;-39
2022/08/01 20:53:39;;;;;;;8.32;3.20;;;19.40;73.30;;;;;;5096557;28;20027;-39
2022/08/01 20:56:14;;;;;;;8.68;3.25;;;19.30;73.70;;;;;;5096246;28;20391;-39
2022/08/01 20:59:01;;;;;;;6.38;2.85;;;19.30;74.70;;;;;;5096283;28;20085;-39
2022/08/01 21:01:29;;;;;;;4.15;2.65;;;19.20;75.90;;;;;;5095718;28;20027;-38
2022/08/01 21:04:04;;;;;;;4.90;2.60;;;19.10;76.30;;;;;;5095745;28;20048;-38
2022/08/01 21:06:36;;;;;;;6.65;3.10;;;19.00;76.80;;;;;;5095903;28;20035;-43
2022/08/01 21:09:04;;;;;;;8.43;2.80;;;18.90;77.50;;;;;;5096003;28;20092;-38
2022/08/01 21:11:45;;;;;;;12.90;3.92;;;18.80;78.10;;;;;;5095625;28;20070;-40
2022/08/01 21:14:17;;;;;;;8.55;3.00;;;18.70;78.70;;;;;;5095911;28;20023;-39
2022/08/01 21:16:48;;;;;;;4.63;2.80;;;18.70;78.90;;;;;;5061728;28;20441;-39
2022/08/01 21:19:21;;;;;;;6.03;3.05;;;18.60;79.00;;;;;;5096150;28;20020;-39
2022/08/01 21:21:55;;;;;;;6.18;3.45;;;18.60;79.20;;;;;;5096032;28;20032;-39
2022/08/01 21:24:25;;;;;;;6.40;2.97;;;18.60;79.30;;;;;;5095965;28;20463;-38
2022/08/01 21:26:52;;;;;;;9.95;3.45;;;18.50;79.30;;;;;;5077771;28;20069;-39
2022/08/01 21:29:21;;;;;;;4.80;2.47;;;18.50;79.50;;;;;;5095419;28;20383;-38
2022/08/01 21:32:10;;;;;;;4.55;2.65;;;18.50;79.60;;;;;;5095057;28;20020;-38
2022/08/01 21:34:37;;;;;;;6.28;2.85;;;18.40;79.80;;;;;;5094974;28;20043;-39
2022/08/01 21:37:06;;;;;;;8.57;3.33;;;18.30;79.90;;;;;;5095592;28;20118;-38
2022/08/01 21:39:33;;;;;;;5.22;3.03;;;18.30;79.80;;;;;;5095390;28;20016;-38
2022/08/01 21:42:02;;;;;;;8.18;4.07;;;18.30;79.10;;;;;;5077310;28;20035;-38
2022/08/01 21:44:30;;;;;;;6.78;3.47;;;18.40;77.70;;;;;;5077398;28;20512;-39
2022/08/01 21:47:01;;;;;;;5.35;2.33;;;18.40;76.80;;;;;;5076808;28;20073;-38
2022/08/01 21:49:27;;;;;;;2.85;2.45;;;18.50;74.80;;;;;;5095252;28;20016;-40
2022/08/01 21:52:08;;;;;;;8.43;2.40;;;18.50;74.30;;;;;;5095299;28;20039;-38
2022/08/01 21:54:47;;;;;;;4.10;1.83;;;18.60;73.40;;;;;;5076678;28;20082;-39
2022/08/01 21:57:51;;;;;;;4.47;2.05;;;18.50;73.10;;;;;;5094533;28;20030;-39
2022/08/01 22:00:21;;;;;;;4.35;2.45;;;18.50;73.10;;;;;;5077818;28;20043;-38
2022/08/01 22:03:08;;;;;;;6.30;2.63;;;18.50;73.20;;;;;;5094264;28;20077;-38
2022/08/01 22:05:36;;;;;;;8.13;3.58;;;18.50;73.10;;;;;;5094602;28;20024;-38
2022/08/01 22:08:05;;;;;;;5.53;3.55;;;18.50;73.20;;;;;;5094455;28;20111;-39
2022/08/01 22:10:31;;;;;;;10.82;3.63;;;18.50;73.00;;;;;;5077223;28;20024;-39
2022/08/01 22:12:57;;;;;;;3.85;2.30;;;18.40;73.00;;;;;;5076560;28;20039;-38
2022/08/01 22:15:25;;;;;;;4.80;2.30;;;18.40;73.20;;;;;;5094766;28;20028;-38
2022/08/01 22:17:51;;;;;;;5.00;2.20;;;18.40;73.50;;;;;;5094746;28;20028;-39
2022/08/01 22:20:24;;;;;;;5.70;2.15;;;18.30;73.20;;;;;;5094159;28;20028;-38
2022/08/01 22:22:51;;;;;;;5.15;2.20;;;18.30;73.90;;;;;;5095316;28;20503;-40
2022/08/01 22:25:17;;;;;;;4.38;2.30;;;18.30;73.60;;;;;;5094135;28;20020;-38
2022/08/01 22:27:44;;;;;;;8.65;3.33;;;18.20;74.00;;;;;;5094154;28;20484;-38
2022/08/01 22:30:11;;;;;;;3.58;2.65;;;18.20;74.00;;;;;;5094443;28;20067;-38
2022/08/01 22:32:39;;;;;;;5.70;2.22;;;18.10;74.40;;;;;;5094296;28;20514;-39
2022/08/01 22:35:08;;;;;;;5.07;3.17;;;18.00;73.60;;;;;;5094060;28;20027;-40
2022/08/01 22:37:34;;;;;;;4.30;2.70;;;18.00;73.20;;;;;;5094242;28;20024;-37
2022/08/01 22:40:02;;;;;;;4.75;2.33;;;18.00;74.20;;;;;;5093606;28;20047;-38
2022/08/01 22:42:51;;;;;;;9.23;2.55;;;17.90;73.40;;;;;;5076391;28;20021;-40
2022/08/01 22:45:34;;;;;;;6.95;2.70;;;17.90;74.00;;;;;;5076187;28;20483;-39
2022/08/01 22:48:24;;;;;;;7.55;2.40;;;17.80;75.20;;;;;;5093796;28;20016;-39
2022/08/01 22:51:04;;;;;;;7.82;2.85;;;17.80;75.80;;;;;;5093843;28;20115;-39
2022/08/01 22:53:44;;;;;;;3.65;2.13;;;17.70;75.60;;;;;;5093774;28;20028;-39
2022/08/01 22:56:10;;;;;;;;;;;17.70;73.00;;;;;;5059278;28;20028;-39
2022/08/01 22:58:39;;;;;;;5.80;2.55;;;17.70;72.60;;;;;;5093823;28;19904;-39
2022/08/01 23:01:08;;;;;;;4.80;1.95;;;17.70;73.20;;;;;;5093485;28;20115;-40
2022/08/01 23:03:38;;;;;;;3.38;2.08;;;17.70;73.20;;;;;;5075348;28;20161;-39
2022/08/01 23:06:09;;;;;;;5.53;2.10;;;17.60;73.20;;;;;;5076594;28;20012;-38
2022/08/01 23:08:36;;;;;;;8.25;2.92;;;17.50;73.90;;;;;;5093634;28;20031;-38
2022/08/01 23:11:04;;;;;;;4.75;2.05;;;17.40;73.90;;;;;;5075363;28;20508;-38
2022/08/01 23:13:30;;;;;;;3.25;2.00;;;17.40;75.60;;;;;;5093469;28;20092;-38
2022/08/01 23:15:57;;;;;;;2.40;2.08;;;17.30;77.40;;;;;;5093118;28;20024;-38
2022/08/01 23:18:24;;;;;;;7.22;2.83;;;17.20;77.60;;;;;;5093369;28;20384;-39
2022/08/01 23:20:51;;;;;;;9.70;2.25;;;17.10;77.90;;;;;;5093531;28;20099;-38
2022/08/01 23:23:18;;;;;;;4.38;2.28;;;17.00;77.30;;;;;;5075091;28;20391;-38
2022/08/01 23:25:46;;;;;;;8.35;3.10;;;17.00;77.30;;;;;;5075456;28;20528;-39
2022/08/01 23:28:13;;;;;;;3.88;2.28;;;17.00;77.30;;;;;;5093350;28;20044;-38
2022/08/01 23:30:39;;;;;;;7.53;3.92;;;17.00;78.50;;;;;;5093532;28;20384;-38
2022/08/01 23:33:05;;;;;;;6.82;3.30;;;17.10;79.30;;;;;;5093274;28;20024;-38
2022/08/01 23:35:32;;;;;;;19.48;4.28;;;17.00;79.90;;;;;;5093396;28;20024;-38
2022/08/01 23:37:58;;;;;;;6.80;2.70;;;16.90;80.30;;;;;;5093447;28;20028;-38
2022/08/01 23:40:24;;;;;;;7.68;3.47;;;16.80;81.20;;;;;;5074614;28;20043;-38
2022/08/01 23:42:50;;;;;;;8.20;3.20;;;16.70;81.80;;;;;;5093343;28;20103;-38
2022/08/01 23:45:16;;;;;;;9.38;3.55;;;16.60;82.50;;;;;;5093400;28;20472;-40
2022/08/01 23:47:41;;;;;;;6.25;3.70;;;16.50;83.00;;;;;;5093091;28;20052;-38
2022/08/01 23:50:08;;;;;;;4.88;3.00;;;16.50;83.00;;;;;;5093078;28;20361;-38
2022/08/01 23:52:34;;;;;;;6.70;3.67;;;16.50;83.10;;;;;;5093192;28;20515;-42
2022/08/01 23:55:00;;;;;;;9.98;6.32;;;16.40;83.20;;;;;;5093238;28;20107;-38
2022/08/01 23:57:26;;;;;;;7.25;3.42;;;16.40;83.20;;;;;;5093333;28;20471;-38
2022/08/01 23:59:52;;;;;;;5.78;2.72;;;16.40;83.40;;;;;;5092967;28;20059;-39
